Time;durP1;ratioP1;P1;durP2;ratioP2;P2;SDS_P1;SDS_P2;PMS_P1;PMS_P2;Temp;Humidity;BMP_temperature;BMP_pressure;BME280_temperature;BME280_humidity;BME280_pressure;Samples;Min_cycle;Max_cycle;Signal;HPM_P1;HPM_P2
2021/12/10 00:00:22;;;;;;;0.90;0.40;;;;;;;10.54;95.21;98451.28;7395788;19;20375;-72
2021/12/10 00:02:53;;;;;;;2.33;0.32;;;;;;;10.57;95.41;98456.91;7395337;19;20078;-68
2021/12/10 00:05:28;;;;;;;2.15;0.57;;;;;;;10.59;95.40;98454.88;7395627;19;20023;-67
2021/12/10 00:08:08;;;;;;;5.10;0.73;;;;;;;10.59;95.47;98454.88;7394772;19;20021;-67
2021/12/10 00:10:43;;;;;;;1.10;0.30;;;;;;;10.62;95.88;98451.00;7392408;19;20010;-68
2021/12/10 00:13:11;;;;;;;1.75;0.50;;;;;;;10.64;95.60;98446.38;7395529;19;20014;-67
2021/12/10 00:15:40;;;;;;;3.25;0.60;;;;;;;10.67;95.64;98445.91;7393962;19;20010;-68
2021/12/10 00:18:17;;;;;;;1.35;0.50;;;;;;;10.68;95.58;98448.34;7393287;19;20014;-68
2021/12/10 00:20:48;;;;;;;1.63;0.40;;;;;;;10.67;95.41;98446.72;7394927;19;20014;-68
2021/12/10 00:23:19;;;;;;;6.82;2.92;;;;;;;10.69;95.60;98451.78;7396164;19;20007;-68
2021/12/10 00:25:50;;;;;;;1.88;0.70;;;;;;;10.71;95.61;98449.75;7394908;19;20139;-66
2021/12/10 00:28:28;;;;;;;3.45;1.10;;;;;;;10.69;95.60;98451.78;7397042;19;20019;-68
2021/12/10 00:31:01;;;;;;;3.22;1.17;;;;;;;10.69;95.69;98451.78;7397582;19;20034;-67
2021/12/10 00:33:33;;;;;;;3.83;1.73;;;;;;;10.69;95.84;98449.97;7393561;19;20018;-69
2021/12/10 00:36:00;;;;;;;4.97;1.13;;;;;;;10.70;95.64;98450.78;7391508;19;20389;-68
2021/12/10 00:38:28;;;;;;;27.80;4.93;;;;;;;10.68;95.81;98442.28;7396292;19;20019;-67
2021/12/10 00:40:55;;;;;;;5.78;2.00;;;;;;;10.69;96.22;98443.91;7395167;19;20006;-70
2021/12/10 00:43:22;;;;;;;3.60;1.70;;;;;;;10.70;95.93;98437.63;7393338;19;20447;-67
2021/12/10 00:45:50;;;;;;;4.40;1.67;;;;;;;10.72;96.01;98448.72;7394721;19;20119;-68
2021/12/10 00:48:18;;;;;;;4.90;2.03;;;;;;;10.70;96.09;98450.78;7395388;19;20007;-68
2021/12/10 00:50:49;;;;;;;5.80;1.50;;;;;;;10.69;95.62;98446.53;7395105;19;20015;-69
2021/12/10 00:53:22;;;;;;;4.85;1.77;;;;;;;10.71;95.54;98453.19;7396534;19;20028;-68
2021/12/10 00:55:52;;;;;;;6.07;2.30;;;;;;;10.71;95.44;98447.94;7393515;19;20018;-67
2021/12/10 00:58:21;;;;;;;3.78;1.45;;;;;;;10.69;95.22;98446.53;7393829;19;20010;-70
2021/12/10 01:00:52;;;;;;;3.22;1.35;;;;;;;10.66;94.83;98458.28;7393363;19;20033;-69
2021/12/10 01:03:23;;;;;;;2.40;1.27;;;;;;;10.66;94.44;98455.66;7392981;19;20014;-70
2021/12/10 01:05:53;;;;;;;4.15;1.80;;;;;;;10.64;94.11;98454.25;7393720;19;20464;-68
2021/12/10 01:08:21;;;;;;;4.25;1.63;;;;;;;10.65;94.41;98442.72;7394143;19;20007;-68
2021/12/10 01:10:58;;;;;;;7.32;1.67;;;;;;;10.67;94.26;98451.19;7391267;19;20010;-66
2021/12/10 01:13:30;;;;;;;4.35;1.85;;;;;;;10.68;93.86;98458.06;7391637;19;20350;-68
2021/12/10 01:27:24;;;;;;;3.30;1.27;;;;;;;10.47;91.43;98472.34;7389744;19;20011;-68
2021/12/10 01:29:56;;;;;;;8.77;3.50;;;;;;;10.46;91.33;98476.00;7389776;19;20030;-67
2021/12/10 01:32:28;;;;;;;3.25;1.40;;;;;;;10.46;91.60;98478.63;7390061;19;20014;-69
2021/12/10 01:35:00;;;;;;;2.63;1.00;;;;;;;10.46;91.52;98496.22;7392210;19;20019;-68
2021/12/10 01:37:30;;;;;;;4.18;1.95;;;;;;;10.45;91.66;98498.06;7391874;19;20475;-68
2021/12/10 01:39:58;;;;;;;3.05;1.00;;;;;;;10.42;91.40;98500.28;7393310;19;20029;-68
2021/12/10 01:42:39;;;;;;;9.70;1.42;;;;;;;10.39;90.95;98503.31;7390689;19;20085;-68
2021/12/10 01:45:28;;;;;;;2.63;0.90;;;;;;;10.38;90.76;98507.78;7390541;19;20062;-70
2021/12/10 01:48:04;;;;;;;3.42;0.93;;;;;;;10.36;91.47;98506.38;7390854;19;20010;-67
2021/12/10 01:50:33;;;;;;;1.60;0.73;;;;;;;10.31;90.96;98516.72;7393230;19;20007;-70
2021/12/10 01:53:05;;;;;;;3.22;1.10;;;;;;;10.29;91.39;98523.00;7390400;19;20079;-69
2021/12/10 01:55:36;;;;;;;3.95;0.80;;;;;;;10.25;91.49;98524.41;7393171;19;20003;-70
2021/12/10 01:58:06;;;;;;;2.20;0.90;;;;;;;10.26;92.10;98525.19;7392118;19;20011;-69
2021/12/10 02:00:37;;;;;;;1.67;0.63;;;;;;;10.25;91.75;98526.25;7391701;19;20010;-68
2021/12/10 02:03:04;;;;;;;1.27;0.60;;;;;;;10.29;91.99;98522.19;7391288;19;20015;-68
2021/12/10 02:05:32;;;;;;;3.42;1.13;;;;;;;10.26;91.37;98522.56;7391720;19;20019;-69
2021/12/10 02:08:00;;;;;;;2.92;0.80;;;;;;;10.27;91.65;98542.59;7393517;19;20021;-68
2021/12/10 02:10:29;;;;;;;1.30;0.40;;;;;;;10.23;90.71;98539.56;7393226;19;20007;-69
2021/12/10 02:13:04;;;;;;;1.52;0.50;;;;;;;10.22;91.25;98534.53;7389586;19;20694;-69
2021/12/10 02:15:45;;;;;;;2.20;0.38;;;;;;;10.20;91.72;98545.25;7390611;19;20054;-68
2021/12/10 02:18:43;;;;;;;3.60;0.70;;;;;;;10.15;91.27;98546.88;7393517;19;20074;-68
2021/12/10 02:21:21;;;;;;;1.10;0.40;;;;;;;10.12;91.07;98555.13;7389784;19;20007;-68
2021/12/10 02:23:56;;;;;;;2.17;0.38;;;;;;;10.11;90.94;98550.88;7391488;19;20018;-67
2021/12/10 02:26:48;;;;;;;1.75;0.40;;;;;;;10.07;90.41;98545.25;7393534;19;20075;-68
2021/12/10 02:29:26;;;;;;;0.77;0.22;;;;;;;10.06;90.72;98551.50;7389661;19;20017;-69
2021/12/10 02:32:10;;;;;;;1.85;0.50;;;;;;;10.04;88.96;98558.00;7390027;19;20100;-70
2021/12/10 02:34:39;;;;;;;0.88;0.25;;;;;;;10.03;89.64;98559.81;7389601;19;20014;-66
2021/12/10 02:37:19;;;;;;;4.78;0.30;;;;;;;10.04;89.65;98564.06;7391388;19;20673;-67
2021/12/10 02:40:09;;;;;;;3.00;0.35;;;;;;;10.08;91.38;98572.34;7391106;19;20014;-69
2021/12/10 02:42:59;;;;;;;2.88;0.30;;;;;;;10.06;90.42;98571.72;7396219;19;20468;-69
2021/12/10 02:46:03;;;;;;;3.22;0.25;;;;;;;10.00;89.06;98570.75;7400668;19;20011;-69
2021/12/10 02:48:46;;;;;;;3.58;0.30;;;;;;;9.96;88.73;98582.66;7398755;19;20014;-68
2021/12/10 02:51:13;;;;;;;3.15;0.30;;;;;;;9.93;88.80;98574.38;7396626;19;20404;-68
2021/12/10 02:54:02;;;;;;;1.90;0.40;;;;;;;9.90;89.25;98578.25;7396618;19;20436;-68
2021/12/10 02:56:41;;;;;;;2.90;0.30;;;;;;;9.85;89.51;98578.03;7399767;19;20467;-69
2021/12/10 02:59:08;;;;;;;2.88;0.60;;;;;;;9.82;89.77;98576.63;7394808;19;20010;-68
2021/12/10 03:01:45;;;;;;;2.38;0.60;;;;;;;9.84;89.45;98589.56;7393897;19;20009;-67
2021/12/10 03:04:21;;;;;;;2.95;0.45;;;;;;;9.82;89.85;98594.19;7394654;19;20014;-67
2021/12/10 03:07:08;;;;;;;2.15;0.30;;;;;;;9.78;89.43;98609.56;7401313;19;20026;-68
2021/12/10 03:09:35;;;;;;;1.60;0.30;;;;;;;9.78;89.73;98606.94;7392587;19;20045;-68
2021/12/10 03:12:02;;;;;;;1.52;0.20;;;;;;;9.75;89.92;98612.56;7390626;19;20010;-69
2021/12/10 03:14:33;;;;;;;2.50;0.20;;;;;;;9.74;90.08;98615.41;7397237;19;20010;-68
2021/12/10 03:17:05;;;;;;;3.15;0.30;;;;;;;9.74;89.58;98625.91;7394719;19;20011;-69
2021/12/10 03:19:32;;;;;;;3.63;0.40;;;;;;;9.72;89.64;98635.81;7395059;19;20027;-68
2021/12/10 03:22:00;;;;;;;2.35;0.30;;;;;;;9.69;89.18;98634.41;7391665;19;20592;-66
2021/12/10 03:24:28;;;;;;;1.90;0.30;;;;;;;9.68;88.76;98640.66;7398461;19;20014;-68
2021/12/10 03:26:57;;;;;;;2.20;0.30;;;;;;;9.66;88.04;98650.53;7394635;19;20007;-68
2021/12/10 03:29:27;;;;;;;4.75;0.35;;;;;;;9.64;87.42;98660.47;7397240;19;20226;-69
2021/12/10 03:31:57;;;;;;;3.95;0.30;;;;;;;9.58;86.05;98650.75;7394857;19;20006;-68
2021/12/10 03:34:24;;;;;;;3.20;0.30;;;;;;;9.56;85.89;98660.63;7393698;19;20019;-69
2021/12/10 03:36:52;;;;;;;4.40;0.55;;;;;;;9.53;86.18;98670.72;7394165;19;20015;-69
2021/12/10 03:39:23;;;;;;;3.35;0.28;;;;;;;9.51;86.19;98659.59;7394276;19;20007;-67
2021/12/10 03:41:53;;;;;;;4.10;0.25;;;;;;;9.47;85.96;98659.22;7395190;19;20475;-70
2021/12/10 03:44:20;;;;;;;5.25;0.43;;;;;;;9.44;85.63;98664.88;7394281;19;20014;-67
2021/12/10 03:46:48;;;;;;;5.75;0.45;;;;;;;9.45;86.55;98675.16;7391634;19;20045;-68
2021/12/10 03:49:15;;;;;;;10.55;0.98;;;;;;;9.44;86.27;98683.25;7394460;19;20010;-67
2021/12/10 03:51:42;;;;;;;5.40;0.40;;;;;;;9.44;86.62;98670.13;7392484;19;20014;-70
2021/12/10 03:54:10;;;;;;;3.47;0.40;;;;;;;9.43;86.62;98685.06;7398633;19;20017;-69
2021/12/10 03:56:38;;;;;;;5.30;0.40;;;;;;;9.45;86.73;98684.84;7393689;19;20114;-69
2021/12/10 03:59:11;;;;;;;6.75;0.57;;;;;;;9.46;86.52;98689.09;7395939;19;20038;-69
2021/12/10 04:01:42;;;;;;;8.40;0.50;;;;;;;9.44;85.75;98697.19;7396509;19;20085;-68
2021/12/10 04:04:14;;;;;;;3.60;0.40;;;;;;;9.42;86.00;98701.81;7393751;19;20011;-68
2021/12/10 04:06:41;;;;;;;6.13;0.45;;;;;;;9.42;86.01;98725.44;7393492;19;20018;-69
2021/12/10 04:09:08;;;;;;;7.60;0.60;;;;;;;9.34;84.17;98717.75;7396141;19;20074;-70
2021/12/10 04:11:36;;;;;;;5.45;0.50;;;;;;;9.34;84.86;98719.56;7393758;19;20489;-68
2021/12/10 04:14:05;;;;;;;5.40;0.80;;;;;;;9.32;84.92;98739.91;7395314;19;20408;-70
2021/12/10 04:16:33;;;;;;;8.18;1.08;;;;;;;9.31;84.69;98739.09;7395688;19;20029;-69
2021/12/10 04:19:02;;;;;;;5.68;0.40;;;;;;;9.30;84.44;98734.84;7393128;19;20581;-68
2021/12/10 04:21:30;;;;;;;6.03;0.30;;;;;;;9.27;83.55;98735.25;7392571;19;20007;-68
2021/12/10 04:23:57;;;;;;;7.07;0.80;;;;;;;9.29;84.23;98735.88;7392942;19;20356;-67
2021/12/10 04:26:25;;;;;;;6.22;0.50;;;;;;;9.29;84.53;98735.88;7389888;19;20026;-69
2021/12/10 04:28:53;;;;;;;9.68;0.38;;;;;;;9.26;84.21;98748.56;7392814;19;20015;-68
2021/12/10 04:31:21;;;;;;;10.45;1.20;;;;;;;9.27;82.89;98748.38;7393677;19;20010;-68
2021/12/10 04:33:51;;;;;;;12.95;0.65;;;;;;;9.28;84.06;98736.88;7393177;19;20007;-70
2021/12/10 04:36:18;;;;;;;7.20;0.60;;;;;;;9.27;83.50;98735.25;7389796;19;20073;-68
2021/12/10 04:38:47;;;;;;;6.22;1.00;;;;;;;9.22;83.07;98740.28;7397288;19;20014;-69
2021/12/10 04:41:17;;;;;;;10.25;0.70;;;;;;;9.22;82.31;98758.66;7391539;19;20022;-67
2021/12/10 04:43:47;;;;;;;11.32;0.40;;;;;;;9.20;82.13;98757.22;7392769;19;20404;-68
2021/12/10 04:46:15;;;;;;;7.68;0.80;;;;;;;9.21;82.54;98757.03;7396071;19;20010;-69
2021/12/10 04:48:48;;;;;;;7.45;0.63;;;;;;;9.18;83.15;98752.19;7393926;19;20021;-69
2021/12/10 04:51:18;;;;;;;6.78;0.52;;;;;;;9.18;82.71;98770.56;7394132;19;20026;-69
2021/12/10 04:53:45;;;;;;;11.65;0.80;;;;;;;9.18;82.27;98757.44;7394668;19;20011;-68
2021/12/10 04:56:12;;;;;;;6.15;0.45;;;;;;;9.16;81.89;98764.69;7391823;19;20010;-66
2021/12/10 04:58:40;;;;;;;4.57;0.52;;;;;;;9.15;81.09;98773.53;7390479;19;20017;-68
2021/12/10 05:01:07;;;;;;;5.10;0.20;;;;;;;9.15;81.25;98784.03;7391532;19;20039;-70
2021/12/10 05:03:35;;;;;;;7.53;0.30;;;;;;;9.12;80.39;98779.19;7388596;19;20019;-68
2021/12/10 05:06:04;;;;;;;6.25;0.47;;;;;;;9.09;79.62;98784.84;7394851;19;20384;-69
2021/12/10 05:08:33;;;;;;;10.98;0.55;;;;;;;9.10;79.24;98786.44;7396054;19;20012;-68
2021/12/10 05:11:02;;;;;;;9.63;0.50;;;;;;;9.08;78.77;98777.97;7390775;19;20082;-69
2021/12/10 05:13:29;;;;;;;3.05;0.40;;;;;;;9.05;77.71;98783.59;7389498;19;20836;-68
2021/12/10 05:15:59;;;;;;;6.35;0.32;;;;;;;9.02;77.63;98802.34;7393480;19;20024;-68
2021/12/10 05:18:33;;;;;;;8.68;0.50;;;;;;;9.01;78.45;98805.97;7394194;19;20011;-69
2021/12/10 05:21:00;;;;;;;3.63;0.25;;;;;;;9.01;78.22;98801.53;7391722;19;20078;-69
2021/12/10 05:23:27;;;;;;;7.68;0.60;;;;;;;9.00;77.13;98806.97;7388528;19;20082;-67
2021/12/10 05:25:54;;;;;;;4.65;0.17;;;;;;;9.02;77.29;98818.09;7390684;19;20010;-66
2021/12/10 05:28:23;;;;;;;4.03;0.10;;;;;;;9.00;77.50;98820.88;7389957;19;20500;-68
2021/12/10 05:30:54;;;;;;;8.57;0.63;;;;;;;8.96;77.12;98834.59;7389560;19;20010;-68
2021/12/10 05:33:27;;;;;;;8.00;0.38;;;;;;;8.95;76.26;98835.56;7392745;19;20475;-69
2021/12/10 05:35:58;;;;;;;3.42;0.30;;;;;;;8.92;75.98;98843.84;7389416;19;20007;-68
2021/12/10 05:38:25;;;;;;;3.95;0.20;;;;;;;8.91;75.59;98856.13;7394523;19;20010;-68
2021/12/10 05:40:54;;;;;;;10.98;0.22;;;;;;;8.87;75.15;98844.41;7392958;19;20499;-69
2021/12/10 05:43:22;;;;;;;5.35;0.47;;;;;;;8.89;75.64;98852.06;7389057;19;20018;-67
2021/12/10 05:45:52;;;;;;;4.13;0.17;;;;;;;8.85;74.83;98856.91;7389751;19;20089;-67
2021/12/10 05:48:20;;;;;;;5.28;0.25;;;;;;;8.85;75.25;98867.38;7389807;19;20006;-69
2021/12/10 05:50:48;;;;;;;6.82;0.20;;;;;;;8.83;74.52;98873.84;7394834;19;20108;-69
2021/12/10 05:53:15;;;;;;;3.67;0.30;;;;;;;8.83;74.60;98873.84;7390781;19;20122;-68
2021/12/10 05:55:47;;;;;;;5.40;0.30;;;;;;;8.80;74.75;98882.88;7393343;19;20017;-74
2021/12/10 05:58:14;;;;;;;5.32;0.20;;;;;;;8.79;75.05;98881.25;7389335;19;20334;-68
2021/12/10 06:00:47;;;;;;;4.30;0.20;;;;;;;8.82;75.47;98883.50;7393738;19;20015;-69
2021/12/10 06:03:15;;;;;;;4.00;0.50;;;;;;;8.81;74.52;98888.94;7391851;19;20021;-68
2021/12/10 06:05:43;;;;;;;4.35;0.20;;;;;;;8.80;73.78;98903.03;7391099;19;20471;-67
2021/12/10 06:08:14;;;;;;;4.68;0.10;;;;;;;8.76;74.00;98917.53;7394238;19;20441;-69
2021/12/10 06:10:46;;;;;;;5.60;0.43;;;;;;;8.73;74.62;98907.44;7389878;19;20014;-69
2021/12/10 06:13:16;;;;;;;1.20;0.10;;;;;;;8.73;73.85;98913.50;7388696;19;20716;-68
2021/12/10 06:15:47;;;;;;;2.63;0.20;;;;;;;8.74;74.88;98924.75;7396955;19;20003;-68
2021/12/10 06:18:14;;;;;;;5.03;0.45;;;;;;;8.72;74.97;98942.50;7395879;19;20011;-68
2021/12/10 06:20:47;;;;;;;2.40;0.40;;;;;;;8.71;75.21;98938.25;7399305;19;20011;-69
2021/12/10 06:23:16;;;;;;;3.95;0.30;;;;;;;8.66;75.45;98943.25;7399041;19;20011;-68
2021/12/10 06:25:43;;;;;;;6.95;0.40;;;;;;;8.65;75.43;98945.06;7398900;19;20087;-69
2021/12/10 06:28:09;;;;;;;6.07;0.60;;;;;;;8.65;76.24;98949.50;7400010;19;20280;-69
2021/12/10 06:30:41;;;;;;;8.20;0.20;;;;;;;8.60;75.58;98950.06;7397085;19;20093;-69
2021/12/10 06:33:11;;;;;;;4.03;0.20;;;;;;;8.57;75.69;98953.06;7398999;19;20455;-68
2021/12/10 06:35:42;;;;;;;4.85;0.52;;;;;;;8.54;76.39;98980.44;7394400;19;20021;-69
2021/12/10 06:38:10;;;;;;;5.25;0.20;;;;;;;8.50;75.12;98973.94;7398940;19;20017;-68
2021/12/10 06:40:39;;;;;;;2.65;0.30;;;;;;;8.51;76.50;98975.56;7398511;19;20015;-69
2021/12/10 06:43:06;;;;;;;4.38;0.10;;;;;;;8.49;76.83;98989.84;7391610;19;20010;-67
2021/12/10 06:45:36;;;;;;;4.60;0.20;;;;;;;8.42;75.84;98986.38;7399340;19;20475;-68
2021/12/10 06:48:05;;;;;;;3.72;0.28;;;;;;;8.37;76.67;98997.41;7397166;19;20010;-69
2021/12/10 06:50:38;;;;;;;9.23;0.47;;;;;;;8.35;77.13;99004.63;7396377;19;20014;-67
2021/12/10 06:53:05;;;;;;;6.18;0.40;;;;;;;8.36;77.73;99016.72;7397699;19;20468;-68
2021/12/10 06:55:33;;;;;;;4.15;0.13;;;;;;;8.33;76.79;99024.16;7396150;19;20102;-68
2021/12/10 06:58:01;;;;;;;6.35;0.45;;;;;;;8.31;76.38;99023.50;7396508;19;20014;-67
2021/12/10 07:00:42;;;;;;;5.10;0.20;;;;;;;8.30;76.35;99034.97;7400318;19;20022;-68
2021/12/10 07:03:18;;;;;;;3.10;0.20;;;;;;;8.28;75.54;99035.13;7396679;19;20038;-69
2021/12/10 07:05:57;;;;;;;2.08;0.20;;;;;;;8.26;75.70;99045.00;7398057;19;20010;-69
2021/12/10 07:08:25;;;;;;;3.20;0.20;;;;;;;8.26;76.49;99050.22;7400953;19;20011;-68
2021/12/10 07:10:53;;;;;;;3.47;0.10;;;;;;;8.26;75.94;99055.47;7393668;19;20471;-67
2021/12/10 07:13:20;;;;;;;3.40;0.25;;;;;;;8.26;75.57;99049.41;7399335;19;20078;-68
2021/12/10 07:15:49;;;;;;;4.82;0.30;;;;;;;8.26;75.89;99068.56;7400876;19;20010;-69
2021/12/10 07:18:19;;;;;;;2.30;0.22;;;;;;;8.25;75.79;99064.31;7395980;19;20073;-67
2021/12/10 07:20:47;;;;;;;7.50;0.40;;;;;;;8.24;75.24;99072.34;7395720;19;20027;-67
2021/12/10 07:23:15;;;;;;;2.97;0.25;;;;;;;8.22;73.94;99069.94;7395696;19;20015;-68
2021/12/10 07:25:42;;;;;;;3.95;0.30;;;;;;;8.25;75.14;99079.22;7396085;19;20055;-67
2021/12/10 07:28:09;;;;;;;4.03;0.35;;;;;;;8.21;74.88;99083.19;7392388;19;20374;-69
2021/12/10 07:30:36;;;;;;;3.50;0.17;;;;;;;8.15;74.91;99088.16;7396858;19;20167;-67
2021/12/10 07:33:03;;;;;;;8.77;0.30;;;;;;;8.18;75.74;99094.84;7398749;19;20396;-69
2021/12/10 07:35:30;;;;;;;3.83;0.30;;;;;;;8.15;75.26;99084.72;7397381;19;20074;-68
2021/12/10 07:37:57;;;;;;;5.65;0.28;;;;;;;8.07;74.61;99103.16;7397211;19;20081;-69
2021/12/10 07:40:27;;;;;;;3.72;0.20;;;;;;;8.09;74.35;99109.03;7399462;19;20411;-71
2021/12/10 07:42:55;;;;;;;5.35;0.32;;;;;;;8.06;74.38;99104.16;7396916;19;20302;-67
2021/12/10 07:45:24;;;;;;;10.70;0.35;;;;;;;8.07;75.69;99111.03;7393141;19;20014;-69
2021/12/10 07:47:59;;;;;;;2.88;0.15;;;;;;;8.09;75.85;99122.13;7393655;19;20340;-69
2021/12/10 07:50:32;;;;;;;4.18;0.32;;;;;;;8.10;76.49;99126.38;7397569;19;20014;-66
2021/12/10 07:52:59;;;;;;;3.53;0.35;;;;;;;8.11;76.08;99133.25;7395831;19;20118;-68
2021/12/10 07:55:31;;;;;;;1.52;0.20;;;;;;;8.07;74.54;99137.22;7393300;19;20007;-69
2021/12/10 07:58:02;;;;;;;2.70;0.15;;;;;;;8.02;74.03;99139.56;7399483;19;20488;-69
2021/12/10 08:00:34;;;;;;;6.88;0.30;;;;;;;8.01;74.50;99153.63;7396596;19;20032;-67
2021/12/10 08:03:02;;;;;;;5.70;0.20;;;;;;;8.02;75.55;99145.59;7392901;19;20006;-68
2021/12/10 08:05:30;;;;;;;4.82;0.20;;;;;;;8.04;75.93;99154.09;7394415;19;20010;-69
2021/12/10 08:07:59;;;;;;;2.83;0.63;;;;;;;8.05;76.52;99160.13;7396354;19;20014;-68
2021/12/10 08:10:28;;;;;;;6.80;0.95;;;;;;;7.99;74.44;99159.03;7396216;19;20014;-70
2021/12/10 08:12:56;;;;;;;1.75;0.40;;;;;;;8.00;75.38;99167.72;7396433;19;20029;-68
2021/12/10 08:15:23;;;;;;;2.35;0.22;;;;;;;7.99;75.56;99173.94;7394253;19;20476;-68
2021/12/10 08:17:50;;;;;;;7.28;0.82;;;;;;;7.95;75.56;99172.66;7393476;19;20015;-69
2021/12/10 08:20:20;;;;;;;3.92;0.28;;;;;;;7.97;75.65;99183.78;7395633;19;20018;-67
2021/12/10 08:22:49;;;;;;;4.13;0.40;;;;;;;8.00;76.41;99192.09;7392982;19;20015;-68
2021/12/10 08:25:19;;;;;;;4.10;0.25;;;;;;;8.01;75.72;99192.91;7392591;19;20482;-69
2021/12/10 08:27:47;;;;;;;3.38;0.20;;;;;;;8.00;74.82;99189.47;7394262;19;20046;-69
2021/12/10 08:30:18;;;;;;;4.30;0.43;;;;;;;8.03;75.38;99194.34;7391284;19;20015;-69
2021/12/10 08:32:52;;;;;;;2.28;0.25;;;;;;;8.05;75.83;99202.84;7395321;19;20090;-69
2021/12/10 08:35:23;;;;;;;7.15;0.50;;;;;;;8.04;76.59;99196.00;7393155;19;20410;-68
2021/12/10 08:37:51;;;;;;;6.88;0.30;;;;;;;8.01;75.47;99206.81;7394880;19;20033;-69
2021/12/10 08:40:22;;;;;;;4.38;0.30;;;;;;;8.01;76.13;99200.78;7395064;19;20019;-68
2021/12/10 08:42:53;;;;;;;5.32;0.68;;;;;;;8.01;76.29;99206.00;7395157;19;20014;-69
2021/12/10 08:45:23;;;;;;;6.32;0.45;;;;;;;8.01;76.25;99217.31;7393246;19;20015;-67
2021/12/10 08:47:53;;;;;;;8.52;0.30;;;;;;;8.02;75.02;99218.13;7396820;19;20011;-68
2021/12/10 08:50:23;;;;;;;4.47;1.17;;;;;;;8.02;75.15;99228.59;7393267;19;20006;-68
2021/12/10 08:52:54;;;;;;;5.30;0.25;;;;;;;8.01;75.55;99230.41;7394489;19;20459;-70
2021/12/10 08:55:21;;;;;;;3.05;0.20;;;;;;;8.04;75.07;99231.84;7394907;19;20010;-70
2021/12/10 08:57:48;;;;;;;3.05;0.30;;;;;;;8.02;74.18;99233.84;7394663;19;20102;-69
2021/12/10 09:00:16;;;;;;;7.72;0.20;;;;;;;8.02;75.06;99245.13;7395648;19;20727;-70
2021/12/10 09:02:45;;;;;;;4.70;0.93;;;;;;;8.05;75.50;99244.75;7374422;19;20010;-69
2021/12/10 09:05:12;;;;;;;4.35;0.30;;;;;;;8.05;75.67;99242.16;7391832;19;20019;-68
2021/12/10 09:07:43;;;;;;;3.17;0.30;;;;;;;8.04;75.46;99255.41;7392439;19;20028;-68
2021/12/10 09:10:13;;;;;;;4.38;0.30;;;;;;;8.03;75.75;99267.69;7392590;19;20097;-70
2021/12/10 09:12:41;;;;;;;6.22;0.20;;;;;;;8.03;75.13;99270.31;7394173;19;20334;-68
2021/12/10 09:15:11;;;;;;;5.20;0.22;;;;;;;8.03;75.34;99262.44;7393885;19;20011;-69
2021/12/10 09:17:40;;;;;;;4.90;0.30;;;;;;;8.15;80.42;99276.78;7393909;19;20019;-67
2021/12/10 09:20:17;;;;;;;4.03;0.35;;;;;;;8.23;79.85;99280.31;7392991;19;20319;-70
2021/12/10 09:22:44;;;;;;;9.63;0.65;;;;;;;8.24;76.24;99295.84;7395047;19;20007;-68
2021/12/10 09:25:12;;;;;;;8.50;0.70;;;;;;;8.25;75.50;99296.66;7391854;19;20003;-70
2021/12/10 09:27:41;;;;;;;3.80;0.43;;;;;;;8.24;76.53;99295.03;7394300;19;20017;-70
2021/12/10 09:30:13;;;;;;;24.35;2.00;;;;;;;8.26;78.27;99298.31;7393701;19;20003;-67
2021/12/10 09:32:40;;;;;;;18.83;1.95;;;;;;;8.23;76.08;99320.41;7392675;19;20018;-71
2021/12/10 09:35:09;;;;;;;11.18;0.40;;;;;;;8.22;75.70;99328.47;7394519;19;20066;-67
2021/12/10 09:37:42;;;;;;;7.40;0.60;;;;;;;8.25;75.72;99330.72;7391897;19;20014;-70
2021/12/10 09:40:18;;;;;;;8.35;0.30;;;;;;;8.22;73.44;99331.91;7392710;19;20499;-68
2021/12/10 09:42:46;;;;;;;6.53;0.30;;;;;;;8.22;73.77;99341.56;7394052;19;20010;-69
2021/12/10 09:45:27;;;;;;;6.20;0.50;;;;;;;8.18;74.22;99348.94;7389303;19;20493;-70
2021/12/10 09:47:54;;;;;;;3.70;0.50;;;;;;;8.15;73.67;99352.72;7395214;19;20106;-69
2021/12/10 09:50:28;;;;;;;4.25;0.40;;;;;;;8.16;74.21;99362.22;7389537;19;20017;-68
2021/12/10 09:53:22;;;;;;;3.25;0.30;;;;;;;8.18;73.71;99375.13;7392343;19;20014;-68
2021/12/10 09:55:53;;;;;;;3.45;0.20;;;;;;;8.17;73.58;99368.28;7393364;19;20018;-70
2021/12/10 09:58:23;;;;;;;6.47;0.30;;;;;;;8.18;73.57;99384.81;7394136;19;20021;-68
2021/12/10 10:00:55;;;;;;;5.70;0.57;;;;;;;8.11;72.87;99374.22;7392633;19;20007;-70
2021/12/10 10:03:31;;;;;;;2.70;0.30;;;;;;;8.12;73.12;99388.94;7392869;19;20015;-68
2021/12/10 10:06:04;;;;;;;2.83;0.20;;;;;;;8.15;73.34;99386.78;7392813;19;20271;-69
2021/12/10 10:08:32;;;;;;;;;;;;;;;8.21;73.88;99397.56;7395160;19;20404;-69
2021/12/10 10:11:08;;;;;;;7.78;0.30;;;;;;;8.24;74.00;99390.16;7390738;19;20256;-69
2021/12/10 10:13:57;;;;;;;2.13;0.28;;;;;;;8.26;72.83;99406.53;7393604;19;20022;-69
2021/12/10 10:16:27;;;;;;;10.50;0.98;;;;;;;8.32;72.73;99407.69;7392621;19;20018;-68
2021/12/10 10:18:56;;;;;;;3.53;0.40;;;;;;;8.33;72.57;99409.31;7391236;19;20022;-69
2021/12/10 10:21:27;;;;;;;3.78;0.20;;;;;;;8.32;71.89;99402.44;7390946;19;20010;-68
2021/12/10 10:23:55;;;;;;;4.35;0.47;;;;;;;8.36;71.98;99417.63;7391024;19;20027;-69
2021/12/10 10:26:31;;;;;;;6.57;0.38;;;;;;;8.39;71.91;99424.31;7392229;19;20014;-69
2021/12/10 10:29:21;;;;;;;3.40;0.30;;;;;;;8.42;71.81;99424.81;7392889;19;20344;-70
2021/12/10 10:31:56;;;;;;;2.92;0.35;;;;;;;8.46;72.17;99427.91;7390427;19;20018;-70
2021/12/10 10:34:44;;;;;;;5.38;0.30;;;;;;;8.41;71.65;99436.28;7391203;19;20014;-67
2021/12/10 10:37:12;;;;;;;3.65;0.40;;;;;;;8.41;70.64;99427.59;7387237;19;20014;-70
2021/12/10 10:39:41;;;;;;;7.38;0.40;;;;;;;8.44;71.88;99430.69;7388909;19;20038;-69
2021/12/10 10:42:14;;;;;;;6.97;0.43;;;;;;;8.52;72.08;99437.69;7391033;19;20023;-68
2021/12/10 10:44:56;;;;;;;6.22;0.55;;;;;;;8.53;71.03;99442.72;7387587;19;20352;-66
2021/12/10 10:47:24;;;;;;;6.30;0.95;;;;;;;8.58;70.61;99447.47;7388635;19;20422;-68
2021/12/10 10:50:20;;;;;;;3.45;0.40;;;;;;;8.56;71.63;99455.50;7387942;19;20523;-69
2021/12/10 10:52:57;;;;;;;6.47;0.55;;;;;;;8.58;71.07;99455.34;7390108;19;20007;-69
2021/12/10 10:55:28;;;;;;;6.15;0.70;;;;;;;8.60;71.34;99455.97;7392351;19;20011;-68
2021/12/10 10:58:09;;;;;;;7.18;0.40;;;;;;;8.63;71.73;99458.25;7389233;19;20006;-70
2021/12/10 11:00:51;;;;;;;5.35;0.20;;;;;;;8.66;72.79;99450.03;7387229;19;20017;-70
2021/12/10 11:03:51;;;;;;;2.30;0.20;;;;;;;8.65;71.09;99461.50;7395756;19;20356;-71
2021/12/10 11:06:26;;;;;;;4.28;0.30;;;;;;;8.67;71.46;99470.03;7399718;19;20810;-69
2021/12/10 11:09:03;;;;;;;60.00;23.42;;;;;;;8.67;71.46;99472.66;7396332;19;20015;-69
2021/12/10 11:11:36;;;;;;;21.65;8.18;;;;;;;8.70;72.58;99477.53;7396987;19;20352;-67
2021/12/10 11:14:15;;;;;;;9.20;2.20;;;;;;;8.69;71.42;99470.66;7394621;19;20085;-68
2021/12/10 11:16:45;;;;;;;7.80;0.50;;;;;;;8.74;71.60;99478.81;7395671;19;20010;-68
2021/12/10 11:19:21;;;;;;;3.05;0.30;;;;;;;8.79;72.04;99488.78;7395811;19;20014;-69
2021/12/10 11:21:56;;;;;;;4.68;0.50;;;;;;;8.83;71.47;99490.06;7400737;19;20191;-68
2021/12/10 11:24:46;;;;;;;4.72;0.88;;;;;;;8.85;69.70;99494.16;7393319;19;20098;-69
2021/12/10 11:27:16;;;;;;;6.50;0.20;;;;;;;8.88;69.91;99491.19;7396396;19;20491;-70
2021/12/10 11:29:51;;;;;;;5.78;0.20;;;;;;;8.86;69.59;99493.16;7394477;19;20053;-68
2021/12/10 11:32:29;;;;;;;0.57;0.30;;;;;;;8.86;69.21;99506.28;7395577;19;20029;-68
2021/12/10 11:35:09;;;;;;;3.45;0.20;;;;;;;8.89;70.12;99521.66;7395695;19;20014;-71
2021/12/10 11:37:39;;;;;;;2.00;0.15;;;;;;;8.91;69.52;99514.44;7394859;19;20527;-69
2021/12/10 11:40:32;;;;;;;2.47;0.13;;;;;;;8.95;69.17;99515.72;7400086;19;20014;-69
2021/12/10 11:43:21;;;;;;;;;;;;;;;8.97;69.30;99518.16;7397971;19;20021;-68
2021/12/10 11:46:05;;;;;;;3.75;0.40;;;;;;;8.91;69.93;99513.63;7394719;19;19922;-70
2021/12/10 11:48:36;;;;;;;1.85;0.20;;;;;;;8.90;70.29;99523.28;7394283;19;20390;-68
2021/12/10 11:51:26;;;;;;;4.38;0.20;;;;;;;8.94;69.55;99540.31;7393770;19;20010;-69
2021/12/10 11:54:01;;;;;;;2.88;0.20;;;;;;;8.93;68.92;99527.38;7396594;19;20468;-66
2021/12/10 11:56:41;;;;;;;7.00;0.35;;;;;;;8.94;70.03;99536.84;7394121;19;20007;-67
2021/12/10 11:59:22;;;;;;;1.10;0.13;;;;;;;8.97;70.47;99526.84;7395024;19;20421;-69
2021/12/10 12:02:07;;;;;;;4.45;0.20;;;;;;;9.04;70.58;99542.69;7395802;19;20372;-68
2021/12/10 12:04:47;;;;;;;3.78;0.20;;;;;;;9.09;70.08;99548.25;7394322;19;20661;-69
2021/12/10 12:07:29;;;;;;;3.83;0.30;;;;;;;9.13;69.42;99538.22;7396232;19;20077;-69
2021/12/10 12:10:20;;;;;;;4.95;0.30;;;;;;;9.14;68.44;99539.88;7393951;19;20007;-69
2021/12/10 12:12:52;;;;;;;3.85;0.52;;;;;;;9.18;69.00;99555.06;7390793;19;20046;-68